Time;durP1;ratioP1;P1;durP2;ratioP2;P2;SDS_P1;SDS_P2;PMS_P1;PMS_P2;Temp;Humidity;BMP_temperature;BMP_pressure;BME280_temperature;BME280_humidity;BME280_pressure;Samples;Min_cycle;Max_cycle;Signal;HPM_P1;HPM_P2
2022/02/25 00:02:22;;;;;;;1.23;0.80;;;;;;;-146.05;100.00;59461.22;5036405;28;20138;-79
2022/02/25 00:04:51;;;;;;;1.95;0.70;;;;;;;-146.05;100.00;59461.22;5036886;28;20103;-80
2022/02/25 00:07:19;;;;;;;0.65;0.65;;;;;;;-146.05;100.00;59461.22;5037704;28;20068;-79
2022/02/25 00:09:46;;;;;;;1.27;0.80;;;;;;;-146.05;100.00;59461.22;5037116;28;20049;-80
2022/02/25 00:12:14;;;;;;;2.22;1.33;;;;;;;-146.05;100.00;59461.22;5035689;28;20057;-79
2022/02/25 00:14:44;;;;;;;2.42;0.50;;;;;;;-146.05;100.00;59461.22;5037190;28;20060;-79
2022/02/25 00:17:11;;;;;;;0.70;0.60;;;;;;;-146.05;100.00;59461.22;5037551;28;20052;-79
2022/02/25 00:19:39;;;;;;;1.75;0.45;;;;;;;-146.05;100.00;59461.22;5036245;28;20064;-79
2022/02/25 00:22:08;;;;;;;0.93;0.50;;;;;;;-146.05;100.00;59461.22;5035470;28;20053;-79
2022/02/25 00:24:36;;;;;;;5.55;0.85;;;;;;;-146.05;100.00;59461.22;5035825;28;20424;-79
2022/02/25 00:27:04;;;;;;;3.13;1.17;;;;;;;-146.05;100.00;59461.22;5035450;28;20061;-80
2022/02/25 00:29:31;;;;;;;4.47;0.65;;;;;;;-146.05;100.00;59461.22;5035788;28;20049;-80
2022/02/25 00:31:59;;;;;;;2.40;0.85;;;;;;;-146.05;100.00;59461.22;5035140;28;20053;-79
2022/02/25 00:34:27;;;;;;;2.25;0.60;;;;;;;-146.05;100.00;59461.22;5039972;28;20061;-79
2022/02/25 00:36:54;;;;;;;2.17;0.80;;;;;;;-146.05;100.00;59461.22;5050061;28;20431;-80
2022/02/25 00:39:23;;;;;;;1.58;1.00;;;;;;;-146.05;100.00;59461.22;5048525;28;20045;-80
2022/02/25 00:41:51;;;;;;;1.58;0.63;;;;;;;-146.05;100.00;59461.22;5040580;28;20052;-79
2022/02/25 00:44:19;;;;;;;0.75;0.70;;;;;;;-146.05;100.00;59461.22;5035735;28;20064;-79
2022/02/25 00:46:46;;;;;;;2.15;0.68;;;;;;;-146.05;100.00;59461.22;5034675;28;20056;-79
2022/02/25 00:49:14;;;;;;;2.08;0.80;;;;;;;-146.05;100.00;59461.22;5035216;28;20056;-80
2022/02/25 00:51:42;;;;;;;0.40;0.40;;;;;;;-146.05;100.00;59461.22;5035284;28;20050;-79
2022/02/25 00:54:10;;;;;;;2.17;0.90;;;;;;;-146.05;100.00;59461.22;5034874;28;20057;-79
2022/02/25 00:56:39;;;;;;;0.90;0.55;;;;;;;-146.05;100.00;59461.22;5035140;28;20052;-79
2022/02/25 00:59:06;;;;;;;1.05;0.60;;;;;;;-146.05;100.00;59461.22;5034993;28;20057;-79
2022/02/25 01:01:34;;;;;;;1.23;0.45;;;;;;;-146.05;100.00;59461.22;5035203;28;20075;-80
2022/02/25 01:04:02;;;;;;;1.45;0.45;;;;;;;-146.05;100.00;59461.22;5034952;28;20594;-79
2022/02/25 01:06:29;;;;;;;1.98;0.40;;;;;;;-146.05;100.00;59461.22;5034520;28;20062;-79
2022/02/25 01:08:58;;;;;;;0.88;0.47;;;;;;;-146.05;100.00;59461.22;5035449;28;20053;-79
2022/02/25 01:11:25;;;;;;;1.58;0.50;;;;;;;-146.05;100.00;59461.22;5034913;28;20052;-79
2022/02/25 01:13:54;;;;;;;1.10;0.47;;;;;;;-146.05;100.00;59461.22;5034884;28;20045;-79
2022/02/25 01:16:22;;;;;;;2.47;1.05;;;;;;;-146.05;100.00;59461.22;5034555;28;20071;-79
2022/02/25 01:18:50;;;;;;;2.58;0.60;;;;;;;-146.05;100.00;59461.22;5034708;28;20053;-79
2022/02/25 01:21:17;;;;;;;1.52;0.50;;;;;;;-146.05;100.00;59461.22;5034953;28;20049;-79
2022/02/25 01:23:45;;;;;;;2.03;0.63;;;;;;;-146.05;100.00;59461.22;5034574;28;20049;-79
2022/02/25 01:26:12;;;;;;;4.03;1.90;;;;;;;-146.05;100.00;59461.22;5034710;28;20049;-79
2022/02/25 01:28:40;;;;;;;2.35;0.90;;;;;;;-146.05;100.00;59461.22;5034492;28;20049;-80
2022/02/25 01:31:10;;;;;;;1.70;0.82;;;;;;;-146.05;100.00;59461.22;5034550;28;20057;-79
2022/02/25 01:33:37;;;;;;;0.98;0.70;;;;;;;-146.05;100.00;59461.22;5034161;28;20049;-79
2022/02/25 01:36:05;;;;;;;2.45;0.70;;;;;;;-146.05;100.00;59461.22;5034172;28;20056;-79
2022/02/25 01:38:33;;;;;;;2.63;0.70;;;;;;;-146.05;100.00;59461.22;5034437;28;20079;-79
2022/02/25 01:41:00;;;;;;;0.65;0.60;;;;;;;-146.05;100.00;59461.22;5034658;28;20518;-79
2022/02/25 01:43:28;;;;;;;1.30;0.80;;;;;;;-146.05;100.00;59461.22;5034100;28;20051;-79
2022/02/25 01:45:55;;;;;;;2.25;0.80;;;;;;;-146.05;100.00;59461.22;5033729;28;20049;-79
2022/02/25 01:48:25;;;;;;;0.80;0.70;;;;;;;-146.05;100.00;59461.22;5034345;28;20056;-79
2022/02/25 01:50:53;;;;;;;1.52;0.90;;;;;;;-146.05;100.00;59461.22;5036006;28;20053;-79
2022/02/25 01:53:20;;;;;;;3.00;1.00;;;;;;;-146.05;100.00;59461.22;5034921;28;20052;-78
2022/02/25 01:55:48;;;;;;;1.55;0.70;;;;;;;-146.05;100.00;59461.22;5034810;28;20061;-80
2022/02/25 01:58:16;;;;;;;2.05;1.00;;;;;;;-146.05;100.00;59461.22;5033167;28;20435;-79
2022/02/25 02:00:44;;;;;;;3.13;0.85;;;;;;;-146.05;100.00;59461.22;5034047;28;20060;-79
2022/02/25 02:03:11;;;;;;;2.28;0.68;;;;;;;-146.05;100.00;59461.22;5034308;28;20072;-79
2022/02/25 02:05:41;;;;;;;3.53;0.90;;;;;;;-146.05;100.00;59461.22;5033887;28;20046;-79
2022/02/25 02:08:08;;;;;;;3.80;1.20;;;;;;;-146.05;100.00;59461.22;5033802;28;20046;-79
2022/02/25 02:10:36;;;;;;;3.15;1.15;;;;;;;-146.05;100.00;59461.22;5033634;28;20049;-79
2022/02/25 02:13:03;;;;;;;1.20;0.90;;;;;;;-146.05;100.00;59461.22;5033410;28;20042;-79
2022/02/25 02:15:31;;;;;;;4.38;1.13;;;;;;;-146.05;100.00;59461.22;5051891;28;20046;-80
2022/02/25 02:17:58;;;;;;;0.60;0.60;;;;;;;-146.05;100.00;59461.22;5056602;28;20037;-79
2022/02/25 02:20:26;;;;;;;1.90;1.00;;;;;;;-146.05;100.00;59461.22;5045143;28;20099;-79
2022/02/25 02:22:56;;;;;;;3.00;1.42;;;;;;;-146.05;100.00;59461.22;5033960;28;20041;-79
2022/02/25 02:25:24;;;;;;;2.00;0.95;;;;;;;-146.05;100.00;59461.22;5033543;28;20051;-79
2022/02/25 02:30:37;;;;;;;2.83;1.30;;;;;;;-146.05;100.00;59461.22;5033685;28;20053;-79
2022/02/25 02:33:05;;;;;;;1.10;1.00;;;;;;;-146.05;100.00;59461.22;5033342;28;20056;-79
2022/02/25 02:35:32;;;;;;;2.42;1.00;;;;;;;-146.05;100.00;59461.22;5033522;28;20045;-79
2022/02/25 02:38:01;;;;;;;3.28;1.10;;;;;;;-146.05;100.00;59461.22;5032939;28;20046;-79
2022/02/25 02:40:29;;;;;;;1.65;1.15;;;;;;;-146.05;100.00;59461.22;5033680;28;20060;-79
2022/02/25 02:42:56;;;;;;;2.67;1.40;;;;;;;-146.05;100.00;59461.22;5033401;28;20510;-79
2022/02/25 02:45:24;;;;;;;1.80;1.00;;;;;;;-146.05;100.00;59461.22;5033716;28;20052;-79
2022/02/25 02:47:51;;;;;;;2.22;1.58;;;;;;;-146.05;100.00;59461.22;5032959;28;20056;-79
2022/02/25 02:50:19;;;;;;;4.70;1.20;;;;;;;-146.05;100.00;59461.22;5033231;28;20053;-79
2022/02/25 02:52:46;;;;;;;2.50;1.10;;;;;;;-146.05;100.00;59461.22;5044421;28;20041;-79
2022/02/25 02:55:16;;;;;;;3.17;1.15;;;;;;;-146.05;100.00;59461.22;5035280;28;20056;-79
2022/02/25 02:57:44;;;;;;;2.38;1.30;;;;;;;-146.05;100.00;59461.22;5033079;28;20050;-79
2022/02/25 03:00:13;;;;;;;2.20;1.20;;;;;;;-146.05;100.00;59461.22;5032940;28;20060;-79
2022/02/25 03:02:40;;;;;;;5.30;1.42;;;;;;;-146.05;100.00;59461.22;5033241;28;20053;-79
2022/02/25 03:05:09;;;;;;;2.70;1.10;;;;;;;-146.05;100.00;59461.22;5032698;28;20104;-79
2022/02/25 03:07:37;;;;;;;1.55;0.95;;;;;;;-146.05;100.00;59461.22;5032721;28;20606;-79
2022/02/25 03:10:06;;;;;;;3.90;1.30;;;;;;;-146.05;100.00;59461.22;5034692;28;20045;-79
2022/02/25 03:12:35;;;;;;;2.15;1.02;;;;;;;-146.05;100.00;59461.22;5037205;28;20068;-79
2022/02/25 03:15:04;;;;;;;2.00;1.00;;;;;;;-146.05;100.00;59461.22;5036218;28;20056;-79
2022/02/25 03:17:32;;;;;;;1.95;1.30;;;;;;;-146.05;100.00;59461.22;5075793;23;20042;-86
2022/02/25 03:20:00;;;;;;;2.83;1.02;;;;;;;-146.05;100.00;59461.22;5058744;28;20049;-84
2022/02/25 03:22:28;;;;;;;2.35;1.10;;;;;;;-146.05;100.00;59461.22;5057579;28;20101;-89
2022/02/25 03:24:56;;;;;;;3.53;1.13;;;;;;;-146.05;100.00;59461.22;5057807;28;20040;-90
2022/02/25 03:27:24;;;;;;;7.95;1.63;;;;;;;-146.05;100.00;59461.22;5056206;28;20054;-85
2022/02/25 03:29:53;;;;;;;2.30;1.23;;;;;;;-146.05;100.00;59461.22;5057411;28;20052;-86
2022/02/25 03:32:23;;;;;;;1.52;1.10;;;;;;;-146.05;100.00;59461.22;5056022;28;20112;-87
2022/02/25 03:34:51;;;;;;;3.00;1.05;;;;;;;-146.05;100.00;59461.22;5057153;28;20049;-89
2022/02/25 03:37:20;;;;;;;2.33;1.13;;;;;;;-146.05;100.00;59461.22;5054488;28;20052;-88
2022/02/25 03:39:49;;;;;;;2.65;1.13;;;;;;;-146.05;100.00;59461.22;5044092;28;20045;-90
2022/02/25 03:42:18;;;;;;;5.28;1.30;;;;;;;-146.05;100.00;59461.22;5043240;28;20053;-88
2022/02/25 03:44:46;;;;;;;2.83;1.15;;;;;;;-146.05;100.00;59461.22;5043361;28;20065;-88
2022/02/25 03:47:15;;;;;;;4.32;0.95;;;;;;;-146.05;100.00;59461.22;5043275;28;20060;-88
2022/02/25 03:49:43;;;;;;;4.45;1.02;;;;;;;-146.05;100.00;59461.22;5042327;28;20049;-89
2022/02/25 03:52:10;;;;;;;1.73;0.75;;;;;;;-146.05;100.00;59461.22;5042878;28;20056;-88
2022/02/25 03:54:38;;;;;;;4.93;0.75;;;;;;;-146.05;100.00;59461.22;5046934;28;20056;-87
2022/02/25 03:57:06;;;;;;;2.65;0.75;;;;;;;-146.05;100.00;59461.22;5047534;28;20054;-89
2022/02/25 03:59:33;;;;;;;3.92;1.33;;;;;;;-146.05;100.00;59461.22;5043214;28;20069;-88
2022/02/25 04:02:01;;;;;;;1.23;0.60;;;;;;;-146.05;100.00;59461.22;5043777;28;20045;-88
2022/02/25 04:04:30;;;;;;;2.10;0.63;;;;;;;-146.05;100.00;59461.22;5042886;28;20117;-89
2022/02/25 04:06:58;;;;;;;2.22;1.20;;;;;;;-146.05;100.00;59461.22;5042914;28;20046;-87
2022/02/25 04:09:26;;;;;;;3.05;0.70;;;;;;;-146.05;100.00;59461.22;5041838;28;20527;-86
2022/02/25 04:11:54;;;;;;;1.88;1.00;;;;;;;-146.05;100.00;59461.22;5045272;28;20049;-88
2022/02/25 04:14:23;;;;;;;3.22;0.80;;;;;;;-146.05;100.00;59461.22;5056675;28;20052;-87
2022/02/25 04:16:52;;;;;;;2.38;1.20;;;;;;;-146.05;100.00;59461.22;5057242;28;20046;-87
2022/02/25 04:19:21;;;;;;;2.03;0.80;;;;;;;-146.05;100.00;59461.22;5058719;28;20133;-86
2022/02/25 04:21:50;;;;;;;2.75;0.77;;;;;;;-146.05;100.00;59461.22;5059904;28;20021;-89
2022/02/25 04:24:18;;;;;;;2.13;0.93;;;;;;;-146.05;100.00;59461.22;5060156;28;20038;-88
2022/02/25 04:26:45;;;;;;;2.50;0.73;;;;;;;-146.05;100.00;59461.22;5054115;28;20140;-91
2022/02/25 04:29:13;;;;;;;3.33;0.98;;;;;;;-146.05;100.00;59461.22;5046810;28;20416;-91
2022/02/25 04:31:41;;;;;;;0.90;0.80;;;;;;;-146.05;100.00;59461.22;5042936;28;20051;-91
2022/02/25 04:34:09;;;;;;;3.58;0.73;;;;;;;-146.05;100.00;59461.22;5055319;28;20038;-88
2022/02/25 04:36:37;;;;;;;5.18;1.08;;;;;;;-146.05;100.00;59461.22;5059835;28;20034;-88
2022/02/25 04:39:07;;;;;;;1.30;0.65;;;;;;;-146.05;100.00;59461.22;5047785;28;20045;-90
2022/02/25 04:41:36;;;;;;;2.90;1.40;;;;;;;-146.05;100.00;59461.22;5042975;28;20281;-89
2022/02/25 04:44:04;;;;;;;1.42;0.75;;;;;;;-146.05;100.00;59461.22;5042905;28;20055;-89
2022/02/25 04:46:32;;;;;;;2.33;0.82;;;;;;;-146.05;100.00;59461.22;5041849;28;20064;-88
2022/02/25 04:49:00;;;;;;;2.17;1.10;;;;;;;-146.05;100.00;59461.22;5043056;28;20113;-89
2022/02/25 04:51:27;;;;;;;2.20;0.82;;;;;;;-146.05;100.00;59461.22;5043017;28;20049;-89
2022/02/25 04:53:55;;;;;;;1.48;0.75;;;;;;;-146.05;100.00;59461.22;5042189;28;20056;-89
2022/02/25 04:56:24;;;;;;;1.42;0.80;;;;;;;-146.05;100.00;59461.22;5041570;28;20419;-87
2022/02/25 04:58:52;;;;;;;5.68;1.02;;;;;;;-146.05;100.00;59461.22;5042745;28;20049;-87
2022/02/25 05:01:20;;;;;;;4.22;2.42;;;;;;;-146.05;100.00;59461.22;5043538;28;20056;-87
2022/02/25 05:03:48;;;;;;;8.77;2.22;;;;;;;-146.05;100.00;59461.22;5042558;28;20072;-88
2022/02/25 05:06:16;;;;;;;2.60;0.85;;;;;;;-146.05;100.00;59461.22;5042138;28;20049;-91
2022/02/25 05:08:44;;;;;;;1.80;0.88;;;;;;;-146.05;100.00;59461.22;5049979;28;20060;-90
2022/02/25 05:11:12;;;;;;;1.98;0.70;;;;;;;-146.05;100.00;59461.22;5048765;28;20059;-87
2022/02/25 05:13:44;;;;;;;2.20;0.82;;;;;;;-146.05;100.00;59461.22;5040595;28;20092;-89
2022/02/25 05:21:48;;;;;;;5.88;1.15;;;;;;;-146.05;100.00;59461.22;5041019;28;20049;-87
2022/02/25 05:24:15;;;;;;;1.88;0.80;;;;;;;-146.05;100.00;59461.22;5041542;28;20065;-87
2022/02/25 05:26:43;;;;;;;2.30;0.82;;;;;;;-146.05;100.00;59461.22;5041647;28;20053;-88
2022/02/25 05:29:12;;;;;;;4.25;0.77;;;;;;;-146.05;100.00;59461.22;5040775;28;20438;-89
2022/02/25 05:31:40;;;;;;;1.40;0.80;;;;;;;-146.05;100.00;59461.22;5040274;28;20045;-85
2022/02/25 05:34:08;;;;;;;2.75;0.68;;;;;;;-146.05;100.00;59461.22;5039710;28;20049;-87
2022/02/25 05:36:35;;;;;;;2.97;1.02;;;;;;;-146.05;100.00;59461.22;5040555;28;20046;-90
2022/02/25 05:39:03;;;;;;;2.92;0.80;;;;;;;-146.05;100.00;59461.22;5040687;28;20056;-88
2022/02/25 05:41:31;;;;;;;3.45;0.98;;;;;;;-146.05;100.00;59461.22;5040167;28;20041;-89
2022/02/25 05:43:58;;;;;;;2.65;0.98;;;;;;;-146.05;100.00;59461.22;5040331;28;20076;-89
2022/02/25 05:46:28;;;;;;;3.92;0.90;;;;;;;-146.05;100.00;59461.22;5039967;28;20056;-90
2022/02/25 05:48:56;;;;;;;4.05;1.50;;;;;;;-146.05;100.00;59461.22;5040679;28;20045;-87
2022/02/25 05:51:23;;;;;;;2.35;0.68;;;;;;;-146.05;100.00;59461.22;5041317;28;20045;-85
2022/02/25 05:53:53;;;;;;;5.97;0.93;;;;;;;-146.05;100.00;59461.22;5041581;28;20053;-88
2022/02/25 05:56:21;;;;;;;3.67;0.90;;;;;;;-146.05;100.00;59461.22;5040969;28;20052;-89
2022/02/25 05:58:49;;;;;;;5.25;1.10;;;;;;;-146.05;100.00;59461.22;5044629;28;20053;-89
2022/02/25 06:01:16;;;;;;;3.45;1.08;;;;;;;-146.05;100.00;59461.22;5044754;28;20487;-86
2022/02/25 06:03:46;;;;;;;3.63;0.90;;;;;;;-146.05;100.00;59461.22;5056910;28;20045;-91
2022/02/25 06:06:19;;;;;;;2.53;1.17;;;;;;;-146.05;100.00;59461.22;5132415;23;20022;-90
2022/02/25 06:08:51;;;;;;;7.97;1.80;;;;;;;-146.05;100.00;59461.22;5056673;28;20067;-88
2022/02/25 06:11:22;;;;;;;3.83;1.30;;;;;;;-146.05;100.00;59461.22;5054496;28;20053;-91
2022/02/25 06:13:50;;;;;;;6.47;1.52;;;;;;;-146.05;100.00;59461.22;5037567;28;20060;-91
2022/02/25 06:16:24;;;;;;;4.05;1.77;;;;;;;-146.05;100.00;59461.22;5022918;28;20129;-87
2022/02/25 06:18:53;;;;;;;3.55;1.05;;;;;;;-146.05;100.00;59461.22;5024481;28;20052;-91
2022/02/25 06:24:53;;;;;;;5.68;1.00;;;;;;;-146.05;100.00;59461.22;5032013;28;20034;-91
2022/02/25 06:27:33;;;;;;;4.85;0.73;;;;;;;-146.05;100.00;59461.22;5027174;28;20077;-92
2022/02/25 06:30:07;;;;;;;4.45;0.90;;;;;;;-146.05;100.00;59461.22;5037598;28;20061;-88
2022/02/25 06:32:39;;;;;;;5.05;1.05;;;;;;;-146.05;100.00;59461.22;5037987;28;20050;-89
2022/02/25 06:35:11;;;;;;;5.82;1.98;;;;;;;-146.05;100.00;59461.22;5037702;28;20113;-91
2022/02/25 06:37:40;;;;;;;19.95;7.25;;;;;;;-146.05;100.00;59461.22;5029124;28;20050;-88
2022/02/25 06:40:10;;;;;;;6.13;1.30;;;;;;;-146.05;100.00;59461.22;5023107;28;20060;-89
2022/02/25 06:42:38;;;;;;;5.32;1.20;;;;;;;-146.05;100.00;59461.22;5020914;28;20053;-85
2022/02/25 06:45:13;;;;;;;3.65;1.05;;;;;;;-146.05;100.00;59461.22;4999227;28;20078;-90
2022/02/25 06:47:54;;;;;;;2.47;0.60;;;;;;;-146.05;100.00;59461.22;5001203;28;20043;-92
2022/02/25 06:50:34;;;;;;;4.95;1.02;;;;;;;-146.05;100.00;59461.22;5003666;28;20070;-87
2022/02/25 06:53:12;;;;;;;6.88;1.20;;;;;;;-146.05;100.00;59461.22;5010587;28;20141;-89
2022/02/25 06:55:41;;;;;;;2.80;0.98;;;;;;;-146.05;100.00;59461.22;5027770;28;20046;-88
2022/02/25 06:58:11;;;;;;;3.08;0.50;;;;;;;-146.05;100.00;59461.22;5026880;28;20105;-90
2022/02/25 07:00:40;;;;;;;4.57;0.90;;;;;;;-146.05;100.00;59461.22;5026134;28;20463;-88
2022/02/25 07:03:11;;;;;;;7.75;1.73;;;;;;;-146.05;100.00;59461.22;5026927;28;20061;-86
2022/02/25 07:05:54;;;;;;;4.13;1.27;;;;;;;-146.05;100.00;59461.22;5024516;28;20110;-86
2022/02/25 07:08:24;;;;;;;4.03;0.88;;;;;;;-146.05;100.00;59461.22;5025370;28;20065;-90
2022/02/25 07:10:52;;;;;;;6.63;1.33;;;;;;;-146.05;100.00;59461.22;5027985;28;20057;-84
2022/02/25 07:13:45;;;;;;;5.45;0.93;;;;;;;-146.05;100.00;59461.22;5030025;28;20111;-88
2022/02/25 07:19:21;;;;;;;3.63;1.00;;;;;;;-146.05;100.00;59461.22;5006680;28;20050;-84
2022/02/25 07:22:37;;;;;;;4.63;1.20;;;;;;;-146.05;100.00;59461.22;5014737;28;20508;-87
2022/02/25 07:25:22;;;;;;;27.17;13.13;;;;;;;-146.05;100.00;59461.22;5008566;28;20077;-84
2022/02/25 07:28:02;;;;;;;4.22;2.08;;;;;;;-146.05;100.00;59461.22;4985327;28;20078;-87
2022/02/25 07:30:30;;;;;;;6.60;1.40;;;;;;;-146.05;100.00;59461.22;4984851;28;20487;-86
2022/02/25 07:32:58;;;;;;;4.35;0.88;;;;;;;-146.05;100.00;59461.22;4985173;28;20043;-84
2022/02/25 07:35:28;;;;;;;3.70;0.98;;;;;;;-146.05;100.00;59461.22;4984296;28;20129;-84
2022/02/25 07:37:57;;;;;;;3.85;1.10;;;;;;;-146.05;100.00;59461.22;4986253;28;20083;-90
2022/02/25 07:40:27;;;;;;;6.55;2.05;;;;;;;-146.05;100.00;59461.22;4988673;28;20135;-86
2022/02/25 07:42:56;;;;;;;3.15;1.27;;;;;;;-146.05;100.00;59461.22;4988678;28;20110;-90
2022/02/25 07:45:25;;;;;;;7.22;1.13;;;;;;;-146.05;100.00;59461.22;4984932;28;20058;-85
2022/02/25 07:47:53;;;;;;;3.03;1.38;;;;;;;-146.05;100.00;59461.22;4982798;28;20055;-87
2022/02/25 07:50:30;;;;;;;4.05;0.98;;;;;;;-146.05;100.00;59461.22;4985137;28;20057;-86
2022/02/25 07:53:00;;;;;;;6.57;1.50;;;;;;;-146.05;100.00;59461.22;4986910;28;20062;-83
2022/02/25 07:55:49;;;;;;;2.92;1.05;;;;;;;-146.05;100.00;59461.22;4989386;28;20051;-85
2022/02/25 07:58:29;;;;;;;1.95;0.85;;;;;;;-146.05;100.00;59461.22;4998822;28;20038;-90
2022/02/25 08:00:58;;;;;;;9.55;4.50;;;;;;;-146.05;100.00;59461.22;4994502;28;20051;-91
2022/02/25 08:03:28;;;;;;;3.38;1.33;;;;;;;-146.05;100.00;59461.22;4995203;28;20098;-86
2022/02/25 08:05:56;;;;;;;3.78;1.00;;;;;;;-146.05;100.00;59461.22;4993777;28;20061;-87
2022/02/25 08:08:24;;;;;;;3.58;1.20;;;;;;;-146.05;100.00;59461.22;4993677;28;20057;-85
2022/02/25 08:10:53;;;;;;;8.75;1.25;;;;;;;-146.05;100.00;59461.22;4994658;28;20054;-88
2022/02/25 08:13:21;;;;;;;4.40;1.23;;;;;;;-146.05;100.00;59461.22;4997807;28;20102;-88
2022/02/25 08:15:49;;;;;;;5.13;1.40;;;;;;;-146.05;100.00;59461.22;4998126;28;20069;-88
2022/02/25 08:18:22;;;;;;;4.75;1.10;;;;;;;-146.05;100.00;59461.22;4995336;28;20047;-90
2022/02/25 08:20:52;;;;;;;4.53;1.38;;;;;;;-146.05;100.00;59461.22;4995721;28;20110;-89
2022/02/25 08:23:21;;;;;;;2.78;1.08;;;;;;;-146.05;100.00;59461.22;4995405;28;20049;-89
2022/02/25 08:25:54;;;;;;;4.78;1.80;;;;;;;-146.05;100.00;59461.22;4998557;28;20058;-86
2022/02/25 08:28:23;;;;;;;29.90;16.30;;;;;;;-146.05;100.00;59461.22;4997934;28;20089;-89
2022/02/25 08:30:50;;;;;;;12.98;6.38;;;;;;;-146.05;100.00;59461.22;4994965;28;20057;-86
2022/02/25 08:33:19;;;;;;;7.25;1.83;;;;;;;-146.05;100.00;59461.22;4994003;28;20074;-88
2022/02/25 08:35:47;;;;;;;4.32;1.10;;;;;;;-146.05;100.00;59461.22;4994883;28;20047;-87
2022/02/25 08:38:17;;;;;;;3.78;1.20;;;;;;;-146.05;100.00;59461.22;4994140;28;20555;-88
2022/02/25 08:40:46;;;;;;;3.85;1.50;;;;;;;-146.05;100.00;59461.22;4994327;28;20077;-85
2022/02/25 08:43:15;;;;;;;6.90;1.60;;;;;;;-146.05;100.00;59461.22;4993440;28;20046;-84
2022/02/25 08:46:00;;;;;;;3.10;1.60;;;;;;;-146.05;100.00;59461.22;4993936;28;20497;-84
2022/02/25 08:48:28;;;;;;;5.00;1.73;;;;;;;-146.05;100.00;59461.22;4992133;28;20058;-80
2022/02/25 08:50:57;;;;;;;4.60;1.80;;;;;;;-146.05;100.00;59461.22;4990269;28;20079;-83
2022/02/25 08:53:25;;;;;;;4.63;1.42;;;;;;;-146.05;100.00;59461.22;4990220;28;20049;-87
2022/02/25 08:55:53;;;;;;;3.65;1.30;;;;;;;-146.05;100.00;59461.22;4989465;28;20055;-80
2022/02/25 08:58:22;;;;;;;7.75;2.47;;;;;;;-146.05;100.00;59461.22;4987847;28;20138;-86
2022/02/25 09:00:51;;;;;;;6.63;2.53;;;;;;;-146.05;100.00;59461.22;4992802;28;20034;-86
2022/02/25 09:03:18;;;;;;;11.80;4.88;;;;;;;-146.05;100.00;59461.22;4991982;28;20043;-84
2022/02/25 09:05:47;;;;;;;4.72;1.38;;;;;;;-146.05;100.00;59461.22;4992174;28;20051;-84
2022/02/25 09:08:16;;;;;;;4.07;2.03;;;;;;;-146.05;100.00;59461.22;4992082;28;20073;-82
2022/02/25 09:10:47;;;;;;;5.63;1.15;;;;;;;-146.05;100.00;59461.22;4989927;28;20057;-82
2022/02/25 09:13:15;;;;;;;4.95;1.60;;;;;;;-146.05;100.00;59461.22;4989644;28;20070;-82
2022/02/25 09:15:46;;;;;;;5.40;1.63;;;;;;;-146.05;100.00;59461.22;4989657;28;20110;-80
2022/02/25 11:39:54;;;;;;;4.65;1.38;;;;;;;-146.05;100.00;59461.22;5749837;23;20049;-75
2022/02/25 15:26:22;;;;;;;1.88;0.55;;;;;;;-146.05;100.00;59461.22;5662787;23;20060;-83
2022/02/25 15:28:50;;;;;;;1.52;0.50;;;;;;;-146.05;100.00;59461.22;5041293;28;20041;-79
2022/02/25 15:31:17;;;;;;;0.47;0.40;;;;;;;-146.05;100.00;59461.22;5039612;28;20053;-87
2022/02/25 15:33:45;;;;;;;1.23;0.55;;;;;;;-146.05;100.00;59461.22;5039325;28;20076;-79
2022/02/25 15:36:14;;;;;;;3.33;0.75;;;;;;;-146.05;100.00;59461.22;5038675;28;20056;-85
2022/02/25 15:38:41;;;;;;;1.25;0.40;;;;;;;-146.05;100.00;59461.22;5039967;28;20046;-82
2022/02/25 15:41:09;;;;;;;1.38;0.57;;;;;;;-146.05;100.00;59461.22;5052239;28;20483;-82
2022/02/25 15:43:39;;;;;;;2.55;0.70;;;;;;;-146.05;100.00;59461.22;5060651;28;20430;-80
2022/02/25 15:46:08;;;;;;;2.42;1.20;;;;;;;-146.05;100.00;59461.22;5061468;28;20064;-84
2022/02/25 15:48:36;;;;;;;2.33;1.00;;;;;;;-146.05;100.00;59461.22;5070334;28;20099;-89
2022/02/25 15:51:04;;;;;;;4.47;1.20;;;;;;;-146.05;100.00;59461.22;5071946;28;20049;-89
2022/02/25 15:53:34;;;;;;;2.85;1.15;;;;;;;-146.05;100.00;59461.22;5065307;28;20049;-86
2022/02/25 15:56:12;;;;;;;4.43;1.15;;;;;;;-146.05;100.00;59461.22;5066551;28;20060;-90
2022/02/25 15:58:51;;;;;;;2.50;0.88;;;;;;;-146.05;100.00;59461.22;5116041;22;20029;-85
2022/02/25 16:01:22;;;;;;;2.50;1.05;;;;;;;-146.05;100.00;59461.22;5060588;28;20040;-87
2022/02/25 16:03:59;;;;;;;2.53;0.90;;;;;;;-146.05;100.00;59461.22;5051742;28;20518;-88
2022/02/25 16:06:31;;;;;;;5.05;1.30;;;;;;;-146.05;100.00;59461.22;5059143;28;20046;-89
2022/02/25 16:09:06;;;;;;;2.00;1.30;;;;;;;-146.05;100.00;59461.22;5059155;28;20060;-88
2022/02/25 16:11:34;;;;;;;5.20;1.58;;;;;;;-146.05;100.00;59461.22;5058013;28;20105;-87
2022/02/25 16:14:04;;;;;;;2.28;1.08;;;;;;;-146.05;100.00;59461.22;5058302;28;20042;-87
2022/02/25 16:16:33;;;;;;;4.15;1.10;;;;;;;-146.05;100.00;59461.22;5058418;28;20039;-88
2022/02/25 16:19:02;;;;;;;4.85;1.45;;;;;;;-146.05;100.00;59461.22;5057110;28;20097;-83
2022/02/25 16:21:38;;;;;;;3.03;1.50;;;;;;;-146.05;100.00;59461.22;5058583;28;20100;-85
2022/02/25 16:24:31;;;;;;;4.47;2.13;;;;;;;-146.05;100.00;59461.22;5056031;28;20053;-83
2022/02/25 16:26:59;;;;;;;10.27;3.63;;;;;;;-146.05;100.00;59461.22;5055797;28;20053;-82
2022/02/25 16:29:39;;;;;;;5.18;2.83;;;;;;;-146.05;100.00;59461.22;5047574;28;20037;-80
2022/02/25 16:32:17;;;;;;;4.35;2.03;;;;;;;-146.05;100.00;59461.22;5056226;28;20513;-86
2022/02/25 16:34:57;;;;;;;5.25;1.65;;;;;;;-146.05;100.00;59461.22;5058246;28;20076;-85
2022/02/25 16:40:32;;;;;;;2.65;1.35;;;;;;;-146.05;100.00;59461.22;5055648;28;20038;-85
2022/02/25 16:43:18;;;;;;;5.88;2.15;;;;;;;-146.05;100.00;59461.22;5055543;28;20435;-87
2022/02/25 16:46:04;;;;;;;4.88;1.83;;;;;;;-146.05;100.00;59461.22;5053956;28;20080;-88
2022/02/25 16:48:47;;;;;;;2.85;1.48;;;;;;;-146.05;100.00;59461.22;5055678;28;20049;-87
2022/02/25 16:51:31;;;;;;;5.47;1.58;;;;;;;-146.05;100.00;59461.22;5053230;28;20111;-90
2022/02/25 16:54:11;;;;;;;5.95;2.15;;;;;;;-146.05;100.00;59461.22;5057131;28;20060;-85
2022/02/25 16:56:53;;;;;;;3.78;2.42;;;;;;;-146.05;100.00;59461.22;5056879;28;20132;-86
2022/02/25 16:59:34;;;;;;;5.05;1.70;;;;;;;-146.05;100.00;59461.22;5059109;28;20037;-90
2022/02/25 17:02:18;;;;;;;3.72;1.50;;;;;;;-146.05;100.00;59461.22;5059279;28;20072;-89
2022/02/25 17:04:58;;;;;;;4.72;1.83;;;;;;;-146.05;100.00;59461.22;5059116;28;20045;-89
2022/02/25 17:07:39;;;;;;;4.13;2.42;;;;;;;-146.05;100.00;59461.22;5058571;28;20101;-85
2022/02/25 17:10:20;;;;;;;4.37;1.87;;;;;;;-146.05;100.00;59461.22;5059133;28;20033;-89
2022/02/25 17:12:59;;;;;;;5.65;1.95;;;;;;;-146.05;100.00;59461.22;5058986;28;20077;-87
2022/02/25 18:16:39;;;;;;;5.50;1.85;;;;;;;-146.05;100.00;59461.22;5036198;28;20118;-88
2022/02/25 18:22:21;;;;;;;5.85;2.15;;;;;;;-146.05;100.00;59461.22;5036964;28;20057;-88
2022/02/25 18:25:02;;;;;;;6.90;2.10;;;;;;;-146.05;100.00;59461.22;5038095;28;20065;-89
2022/02/25 18:38:31;;;;;;;6.75;2.60;;;;;;;-146.05;100.00;59461.22;5392860;23;20044;-90
2022/02/25 18:41:07;;;;;;;11.60;4.50;;;;;;;-146.05;100.00;59461.22;5056899;28;20060;-88
2022/02/25 18:43:49;;;;;;;11.93;5.70;;;;;;;-146.05;100.00;59461.22;5057526;28;20033;-89
2022/02/25 18:46:23;;;;;;;11.77;5.13;;;;;;;-146.05;100.00;59461.22;5057298;28;20186;-88
2022/02/25 18:49:03;;;;;;;11.73;4.80;;;;;;;-146.05;100.00;59461.22;5037806;28;20050;-87
2022/02/25 18:51:40;;;;;;;8.10;3.80;;;;;;;-146.05;100.00;59461.22;5037896;28;20128;-89
2022/02/25 18:54:20;;;;;;;7.65;3.60;;;;;;;-146.05;100.00;59461.22;5037743;28;20040;-88
2022/02/25 18:56:57;;;;;;;6.72;2.50;;;;;;;-146.05;100.00;59461.22;5037385;28;20108;-90
2022/02/25 18:59:30;;;;;;;5.90;2.42;;;;;;;-146.05;100.00;59461.22;5037376;28;20064;-89
2022/02/25 19:02:10;;;;;;;5.00;2.10;;;;;;;-146.05;100.00;59461.22;5037750;28;20756;-88
2022/02/25 19:04:45;;;;;;;8.07;2.13;;;;;;;-146.05;100.00;59461.22;5037542;28;20049;-86